• Join FlightAware (Why Join?)
  • Login
  • US Flag 
05:52PM EDT


 

Airport Tracker/Info


-or-


 

Live Flight TrackerFlight Track Log ✈ UAL4234 ✈ 21-Apr-2013 ✈ KIAH - KRDU

Flight Track Log - Related Links

Times and Time Zones

All times are in EDT time to prevent confusion due to time zone crossing. See the UAL4234 flight status page for this flight to view local times or setup timezone preferences in your user account.

Time Position Orientation Groundspeed Altitude Reporting Facility
EDT Latitude Longitude Course Direction KTS MPH feet Rate Location/Type
06:21PM 29.9572 -95.3392 121° Southeast 179 206 700  Level Houston Center
06:21PM 29.9419 -95.3097 121° Southeast 187 215 1,800 1,980 Climbing Houston Center
06:22PM 29.9247 -95.2394 106° East 254 292 4,000 2,280 Climbing Houston Center
06:23PM 29.9186 -95.1511 95° East 266 306 6,500 2,160 Climbing Houston Center
06:25PM 29.9133 -95.0667 94° East 283 326 8,700 2,220 Climbing Houston Center
06:26PM 29.9053 -94.9503 95° East 300 345 11,400 1,740 Climbing Houston Center
06:27PM 29.8978 -94.8408 94° East 327 376 12,400 960 Climbing Houston Center
06:28PM 29.8906 -94.7164 94° East 379 436 13,500 1,200 Climbing Houston Center
06:29PM 29.8806 -94.5864 95° East 403 464 15,000 1,500 Climbing Houston Center
06:30PM 29.8722 -94.4542 94° East 411 473 16,700 1,440 Climbing Houston Center
06:31PM 29.8625 -94.3200 95° East 418 481 18,000 1,440 Climbing Houston Center
06:32PM 29.8578 -94.1625 92° East 420 483 19,700 1,500 Climbing Houston Center
06:33PM 29.8564 -94.0261 91° East 426 490 21,200 1,440 Climbing Houston Center
06:34PM 29.8697 -93.8900 84° East 429 494 22,700 1,440 Climbing Houston Center
06:35PM 29.8839 -93.7539 83° East 431 496 24,200 1,440 Climbing Houston Center
06:36PM 29.8992 -93.6161 83° East 435 501 25,700 1,560 Climbing Houston Center
06:37PM 29.9150 -93.4514 84° East 436 502 27,500 1,560 Climbing Houston Center
06:38PM 29.9292 -93.3156 83° East 432 497 29,000 1,440 Climbing Houston Center
06:39PM 29.9428 -93.1803 83° East 430 495 30,500 1,380 Climbing Houston Center
06:40PM 29.9564 -93.0467 83° East 423 487 31,900 1,200 Climbing Houston Center
06:41PM 29.9689 -92.9131 84° East 421 484 33,100 1,080 Climbing Houston Center
06:42PM 29.9828 -92.7508 84° East 424 488 34,200 840 Climbing Houston Center
06:43PM 29.9931 -92.6147 85° East 428 493 34,900 360 Climbing Houston Center
06:44PM 30.0219 -92.4781 76° East 444 511 35,000  Climbing Houston Center
06:45PM 30.0614 -92.3358 72° East 461 531 35,000  Level Houston Center
06:46PM 30.1039 -92.1889 71° East 476 548 35,000  Level Houston Center
06:47PM 30.1558 -92.0058 72° East 495 570 35,000  Level Houston Center
06:48PM 30.2000 -91.8497 72° East 507 583 35,000  Level Houston Center
06:49PM 30.2436 -91.6953 72° East 516 594 35,000  Level Houston Center
06:50PM 30.2869 -91.5375 72° East 515 593 35,000  Level Houston Center
06:52PM 30.3303 -91.3794 72° East 516 594 35,000  Level Houston Center
06:53PM 30.3819 -91.1922 72° East 512 589 35,000  Level Houston Center
06:54PM 30.4253 -91.0344 72° East 514 592 35,000  Level Houston Center
06:55PM 30.4675 -90.8764 73° East 514 592 35,000  Level Houston Center
06:56PM 30.5103 -90.7186 72° East 513 590 35,000  Level Houston Center
06:57PM 30.5531 -90.5600 73° East 516 594 35,000  Level Houston Center
06:58PM 30.5950 -90.4008 73° East 515 593 35,000  Level Houston Center
06:59PM 30.6464 -90.2092 73° East 515 593 35,000  Level Houston Center
07:00PM 30.6889 -90.0472 73° East 517 595 35,000  Level Houston Center
07:01PM 30.7308 -89.8847 73° East 521 600 35,000  Level Houston Center
07:02PM 30.7728 -89.7228 73° East 520 598 35,000  Level Houston Center
07:03PM 30.8144 -89.5603 73° East 522 601 35,000  Level Houston Center
07:04PM 30.8564 -89.3992 73° East 520 598 35,000  Level Houston Center
07:05PM 30.8981 -89.2372 73° East 521 600 35,000  Level Houston Center
07:06PM 30.9381 -89.0733 74° East 523 602 35,000  Level Houston Center
07:07PM 30.9850 -88.8853 74° East 524 603 35,000  Level Houston Center
07:08PM 31.0253 -88.7225 74° East 524 603 35,000  Level Houston Center
07:09PM 31.0692 -88.5500 73° East 528 608 35,000  Level Houston Center
07:10PM 31.1106 -88.3847 74° East 529 609 35,000  Level Houston Center
07:11PM 31.1494 -88.2181 75° East 535 616 35,000  Level Houston Center
07:12PM 31.1922 -88.0531 73° East 534 615 35,000  Level Houston Center
07:13PM 31.2350 -87.8811 74° East 534 615 35,000  Level Houston Center
07:14PM 31.2839 -87.6800 74° East 534 615 35,000  Level Houston Center
07:15PM 31.3461 -87.5275 64° Northeast 519 597 35,000  Level Houston Center
07:16PM 31.3881 -87.4733 48° Northeast 519 597 35,000  Level Atlanta Center
07:17PM 31.4833 -87.3481 48° Northeast 507 583 35,000  Level Atlanta Center
07:18PM 31.5661 -87.2072 55° Northeast 512 589 35,000  Level Atlanta Center
07:19PM 31.6286 -87.0533 64° Northeast 517 595 35,000  Level Atlanta Center
07:20PM 31.6931 -86.8797 66° East 517 595 35,000  Level Atlanta Center
07:21PM 31.7572 -86.7256 64° Northeast 522 601 35,000  Level Atlanta Center
07:22PM 31.8189 -86.5686 65° Northeast 527 606 35,000  Level Atlanta Center
07:23PM 31.8825 -86.4064 65° Northeast 527 606 35,000  Level Atlanta Center
07:24PM 31.9439 -86.2489 65° Northeast 527 606 35,000  Level Atlanta Center
07:25PM 32.0050 -86.0889 66° East 532 612 35,000  Level Atlanta Center
07:26PM 32.0594 -85.9481 65° Northeast 532 612 35,000  Level Atlanta Center
07:27PM 32.1286 -85.7875 63° Northeast 532 612 35,000  Level Atlanta Center
07:28PM 32.1894 -85.6242 66° East 537 618 35,000  Level Atlanta Center
07:29PM 32.2497 -85.4633 66° East 537 618 35,000  Level Atlanta Center
07:30PM 32.3161 -85.3047 64° Northeast 537 618 35,000  Level Atlanta Center
07:31PM 32.3761 -85.1431 66° East 537 618 35,000  Level Atlanta Center
07:32PM 32.4381 -84.9839 65° Northeast 532 612 35,000  Level Atlanta Center
07:33PM 32.5061 -84.8097 65° Northeast 532 612 35,000  Level Atlanta Center
07:34PM 32.5653 -84.6475 67° East 532 612 35,000  Level Atlanta Center
07:35PM 32.6267 -84.4853 66° East 532 612 35,000  Level Atlanta Center
07:36PM 32.6897 -84.3203 66° East 532 612 35,000  Level Atlanta Center
07:37PM 32.7525 -84.1575 65° Northeast 538 619 35,000  Level Atlanta Center
07:38PM 32.8133 -83.9944 66° East 538 619 35,000  Level Atlanta Center
07:39PM 32.8756 -83.8261 66° East 538 619 35,000  Level Atlanta Center
07:40PM 32.9358 -83.6603 67° East 538 619 35,000  Level Atlanta Center
07:41PM 32.9956 -83.4989 66° East 538 619 35,000  Level Atlanta Center
07:42PM 33.0575 -83.3325 66° East 538 619 35,000 -540 Level Atlanta Center
07:43PM 33.1108 -83.1808 67° East 543 625 34,000 -1,020 Descending Atlanta Center
07:44PM 33.1700 -83.0189 66° East 538 619 33,000 -540 Descending Atlanta Center
07:45PM 33.2331 -82.8417 67° East 538 619 33,000  Level Atlanta Center
07:47PM 33.3722 -82.4450 67° East 556 640 33,000  Level Jacksonville Center
07:48PM 33.4322 -82.2803 66° East 551 634 33,000  Level Jacksonville Center
07:49PM 33.4917 -82.1106 67° East 551 634 33,000  Level Jacksonville Center
07:50PM 33.5511 -81.9406 67° East 551 634 33,000  Level Jacksonville Center
07:51PM 33.6122 -81.7728 66° East 546 628 33,000  Level Jacksonville Center
07:52PM 33.6775 -81.6072 65° Northeast 541 623 33,000 -180 Level Jacksonville Center
07:53PM 33.7886 -81.4556 49° Northeast 541 623 32,700 -960 Descending Jacksonville Center
07:54PM 33.8850 -81.3239 49° Northeast 541 623 31,100 -1,680 Descending Jacksonville Center
07:55PM 33.9856 -81.1844 49° Northeast 535 616 29,400 -1,080 Descending Jacksonville Center
07:56PM 34.0839 -81.0497 49° Northeast 535 616 29,000 -600 Descending Jacksonville Center
07:57PM 34.1717 -80.9272 49° Northeast 540 621 28,200 -1,440 Descending Jacksonville Center
07:58PM 34.2778 -80.7817 49° Northeast 534 615 26,200 -2,040 Descending Jacksonville Center
07:59PM 34.3714 -80.6461 50° Northeast 524 603 24,200 -1,140 Descending Jacksonville Center
08:00PM 34.4608 -80.5228 49° Northeast 508 585 24,000 -120 Descending Jacksonville Center
08:02PM 34.5931 -80.3325 50° Northeast 507 583 24,000 -360 Level Washington Center
08:03PM 34.6817 -80.2061 50° Northeast 500 575 23,100 -540 Descending Washington Center
08:04PM 34.7678 -80.0822 50° Northeast 489 563 23,000 -300 Descending Washington Center
08:05PM 34.8700 -79.9689 42° Northeast 489 563 22,600 -1,020 Descending Washington Center
08:06PM 34.9700 -79.8578 42° Northeast 479 551 21,000 -1,620 Descending Washington Center
08:07PM 35.0633 -79.7561 42° Northeast 465 535 19,400 -1,560 Descending Washington Center
08:08PM 35.1586 -79.6542 41° Northeast 451 519 17,900 -1,500 Descending Washington Center
08:09PM 35.2533 -79.5650 38° Northeast 434 499 16,500 -1,740 Descending Washington Center
08:10PM 35.3494 -79.4983 29° Northeast 409 471 14,500 -2,100 Descending Washington Center
08:10PM 35.3858 -79.4747 28° Northeast 375 432 13,600 -1,920 Descending Washington Center
08:11PM 35.4283 -79.4436 31° Northeast 378 435 12,600 -2,220 Descending Washington Center
08:11PM 35.4647 -79.4172 31° Northeast 348 400 11,600 -2,040 Descending Washington Center
08:12PM 35.5142 -79.3764 34° Northeast 344 396 10,600 -1,740 Descending Washington Center
08:12PM 35.5294 -79.3489 56° Northeast 297 342 9,900 -2,040 Descending Washington Center
08:13PM 35.5561 -79.3042 54° Northeast 295 339 8,600 -2,220 Descending Washington Center
08:13PM 35.5778 -79.2719 50° Northeast 278 320 7,700 -2,100 Descending Washington Center
08:14PM 35.6025 -79.2169 61° Northeast 275 316 6,500 -1,620 Descending Washington Center
08:14PM 35.6156 -79.1972 51° Northeast 257 296 6,100 -840 Descending Washington Center
08:15PM 35.6400 -79.1522 56° Northeast 248 285 5,700 -1,140 Descending Washington Center
08:15PM 35.6486 -79.1372 55° Northeast 204 235 5,000 -1,620 Descending Washington Center
08:16PM 35.6728 -79.0950 55° Northeast 210 242 4,100 -1,140 Descending Washington Center
08:16PM 35.6817 -79.0800 54° Northeast 199 229 3,900 -840 Descending Washington Center
08:17PM 35.7036 -79.0400 56° Northeast 199 229 3,300 -540 Descending Washington Center
08:18PM 35.7367 -78.9850 53° Northeast 199 229 3,100 -180 Descending Washington Center
08:18PM 35.7456 -78.9650 61° Northeast 194 223 3,100  Level Washington Center
08:19PM 35.7650 -78.9350 51° Northeast 187 215 3,100 -120 Level Washington Center
08:19PM 35.7822 -78.9181 39° Northeast 181 208 3,000 -600 Descending Washington Center
08:20PM 35.8017 -78.8958 43° Northeast 175 201 2,500 -900 Descending Washington Center
08:20PM 35.8147 -78.8783 47° Northeast 171 197 2,100 -840 Descending Washington Center